sensor_id;sensor_type;location;lat;lon;timestamp;P1;durP1;ratioP1;P2;durP2;ratioP2
4272;SDS011;63887;53.656;9.810;2023-04-03T00:01:04;6.03;;;5.25;;
4272;SDS011;63887;53.656;9.810;2023-04-03T00:03:31;8.02;;;5.45;;
4272;SDS011;63887;53.656;9.810;2023-04-03T00:05:58;6.50;;;5.90;;
4272;SDS011;63887;53.656;9.810;2023-04-03T00:08:25;13.18;;;5.30;;
4272;SDS011;63887;53.656;9.810;2023-04-03T00:10:52;6.13;;;5.55;;
4272;SDS011;63887;53.656;9.810;2023-04-03T00:13:19;7.03;;;5.25;;
4272;SDS011;63887;53.656;9.810;2023-04-03T00:15:45;10.90;;;6.38;;
4272;SDS011;63887;53.656;9.810;2023-04-03T00:18:12;8.65;;;5.15;;
4272;SDS011;63887;53.656;9.810;2023-04-03T00:20:38;16.65;;;5.57;;
4272;SDS011;63887;53.656;9.810;2023-04-03T00:23:05;5.63;;;5.22;;
4272;SDS011;63887;53.656;9.810;2023-04-03T00:25:31;12.85;;;5.68;;
4272;SDS011;63887;53.656;9.810;2023-04-03T00:27:59;17.30;;;5.60;;
4272;SDS011;63887;53.656;9.810;2023-04-03T00:30:25;7.80;;;5.72;;
4272;SDS011;63887;53.656;9.810;2023-04-03T00:32:52;9.68;;;5.25;;
4272;SDS011;63887;53.656;9.810;2023-04-03T00:35:20;6.97;;;6.47;;
4272;SDS011;63887;53.656;9.810;2023-04-03T00:37:47;7.05;;;6.07;;
4272;SDS011;63887;53.656;9.810;2023-04-03T00:40:14;8.15;;;6.03;;
4272;SDS011;63887;53.656;9.810;2023-04-03T00:42:42;8.15;;;5.40;;
4272;SDS011;63887;53.656;9.810;2023-04-03T00:48:01;8.73;;;6.03;;
4272;SDS011;63887;53.656;9.810;2023-04-03T00:50:31;6.57;;;6.03;;
4272;SDS011;63887;53.656;9.810;2023-04-03T00:53:00;10.90;;;4.70;;
4272;SDS011;63887;53.656;9.810;2023-04-03T00:55:27;9.50;;;5.70;;
4272;SDS011;63887;53.656;9.810;2023-04-03T00:57:55;13.10;;;6.95;;
4272;SDS011;63887;53.656;9.810;2023-04-03T01:00:22;6.13;;;5.60;;
4272;SDS011;63887;53.656;9.810;2023-04-03T01:02:51;6.13;;;5.68;;
4272;SDS011;63887;53.656;9.810;2023-04-03T01:05:18;6.78;;;6.15;;
4272;SDS011;63887;53.656;9.810;2023-04-03T01:07:46;6.40;;;5.05;;
4272;SDS011;63887;53.656;9.810;2023-04-03T01:10:15;13.30;;;6.53;;
4272;SDS011;63887;53.656;9.810;2023-04-03T01:12:45;6.70;;;6.13;;
4272;SDS011;63887;53.656;9.810;2023-04-03T01:15:13;8.90;;;6.35;;
4272;SDS011;63887;53.656;9.810;2023-04-03T01:17:43;6.00;;;5.63;;
4272;SDS011;63887;53.656;9.810;2023-04-03T01:23:21;13.18;;;5.30;;
4272;SDS011;63887;53.656;9.810;2023-04-03T01:25:54;5.30;;;5.00;;
4272;SDS011;63887;53.656;9.810;2023-04-03T01:28:23;7.30;;;6.00;;
4272;SDS011;63887;53.656;9.810;2023-04-03T01:30:53;10.60;;;5.18;;
4272;SDS011;63887;53.656;9.810;2023-04-03T01:33:28;6.72;;;6.30;;
4272;SDS011;63887;53.656;9.810;2023-04-03T01:35:55;7.38;;;5.40;;
4272;SDS011;63887;53.656;9.810;2023-04-03T01:38:21;11.50;;;5.40;;
4272;SDS011;63887;53.656;9.810;2023-04-03T01:40:48;6.75;;;6.15;;
4272;SDS011;63887;53.656;9.810;2023-04-03T01:43:14;7.97;;;5.80;;
4272;SDS011;63887;53.656;9.810;2023-04-03T01:45:41;11.98;;;6.10;;
4272;SDS011;63887;53.656;9.810;2023-04-03T01:48:07;5.97;;;5.25;;
4272;SDS011;63887;53.656;9.810;2023-04-03T01:50:35;14.55;;;5.85;;
4272;SDS011;63887;53.656;9.810;2023-04-03T01:53:01;6.65;;;5.15;;
4272;SDS011;63887;53.656;9.810;2023-04-03T01:55:28;6.30;;;5.57;;
4272;SDS011;63887;53.656;9.810;2023-04-03T01:57:54;7.00;;;6.53;;
4272;SDS011;63887;53.656;9.810;2023-04-03T02:00:21;9.30;;;7.07;;
4272;SDS011;63887;53.656;9.810;2023-04-03T02:02:47;7.70;;;5.72;;
4272;SDS011;63887;53.656;9.810;2023-04-03T02:05:14;9.85;;;6.78;;
4272;SDS011;63887;53.656;9.810;2023-04-03T02:07:41;6.03;;;5.53;;
4272;SDS011;63887;53.656;9.810;2023-04-03T02:10:08;7.15;;;6.25;;
4272;SDS011;63887;53.656;9.810;2023-04-03T02:12:35;14.93;;;6.43;;
4272;SDS011;63887;53.656;9.810;2023-04-03T02:15:02;8.13;;;6.70;;
4272;SDS011;63887;53.656;9.810;2023-04-03T02:17:28;20.77;;;6.22;;
4272;SDS011;63887;53.656;9.810;2023-04-03T02:19:55;18.27;;;6.82;;
4272;SDS011;63887;53.656;9.810;2023-04-03T02:22:21;11.68;;;5.88;;
4272;SDS011;63887;53.656;9.810;2023-04-03T02:24:49;8.20;;;5.90;;
4272;SDS011;63887;53.656;9.810;2023-04-03T02:27:16;9.13;;;6.68;;
4272;SDS011;63887;53.656;9.810;2023-04-03T02:29:43;7.40;;;6.70;;
4272;SDS011;63887;53.656;9.810;2023-04-03T02:32:09;8.63;;;6.63;;
4272;SDS011;63887;53.656;9.810;2023-04-03T02:34:36;22.83;;;6.57;;
4272;SDS011;63887;53.656;9.810;2023-04-03T02:37:02;6.40;;;5.85;;
4272;SDS011;63887;53.656;9.810;2023-04-03T02:39:29;7.65;;;5.75;;
4272;SDS011;63887;53.656;9.810;2023-04-03T02:41:57;14.55;;;6.25;;
4272;SDS011;63887;53.656;9.810;2023-04-03T02:44:23;35.55;;;6.45;;
4272;SDS011;63887;53.656;9.810;2023-04-03T02:46:50;6.53;;;5.93;;
4272;SDS011;63887;53.656;9.810;2023-04-03T02:49:16;6.03;;;5.32;;
4272;SDS011;63887;53.656;9.810;2023-04-03T02:51:43;8.18;;;6.30;;
4272;SDS011;63887;53.656;9.810;2023-04-03T02:54:10;7.75;;;5.85;;
4272;SDS011;63887;53.656;9.810;2023-04-03T02:56:37;12.45;;;6.22;;
4272;SDS011;63887;53.656;9.810;2023-04-03T02:59:04;13.38;;;6.20;;
4272;SDS011;63887;53.656;9.810;2023-04-03T03:01:31;14.30;;;5.68;;
4272;SDS011;63887;53.656;9.810;2023-04-03T03:03:58;14.05;;;5.53;;
4272;SDS011;63887;53.656;9.810;2023-04-03T03:06:24;8.40;;;6.55;;
4272;SDS011;63887;53.656;9.810;2023-04-03T03:08:51;6.50;;;5.90;;
4272;SDS011;63887;53.656;9.810;2023-04-03T03:11:17;5.82;;;5.53;;
4272;SDS011;63887;53.656;9.810;2023-04-03T03:13:44;7.57;;;5.72;;
4272;SDS011;63887;53.656;9.810;2023-04-03T03:16:12;5.72;;;5.50;;
4272;SDS011;63887;53.656;9.810;2023-04-03T03:18:39;12.27;;;6.03;;
4272;SDS011;63887;53.656;9.810;2023-04-03T03:21:05;9.98;;;5.90;;
4272;SDS011;63887;53.656;9.810;2023-04-03T03:23:32;5.82;;;5.43;;
4272;SDS011;63887;53.656;9.810;2023-04-03T03:26:00;6.03;;;5.63;;
4272;SDS011;63887;53.656;9.810;2023-04-03T03:28:27;8.52;;;6.20;;
4272;SDS011;63887;53.656;9.810;2023-04-03T03:30:54;6.95;;;6.40;;
4272;SDS011;63887;53.656;9.810;2023-04-03T03:33:22;7.40;;;6.60;;
4272;SDS011;63887;53.656;9.810;2023-04-03T03:35:48;11.85;;;5.80;;
4272;SDS011;63887;53.656;9.810;2023-04-03T03:38:15;8.40;;;6.45;;
4272;SDS011;63887;53.656;9.810;2023-04-03T03:40:41;8.32;;;6.55;;
4272;SDS011;63887;53.656;9.810;2023-04-03T03:43:08;10.82;;;6.30;;
4272;SDS011;63887;53.656;9.810;2023-04-03T03:45:34;8.13;;;5.75;;
4272;SDS011;63887;53.656;9.810;2023-04-03T03:48:01;15.15;;;6.50;;
4272;SDS011;63887;53.656;9.810;2023-04-03T03:50:29;9.93;;;5.78;;
4272;SDS011;63887;53.656;9.810;2023-04-03T03:52:55;10.05;;;5.55;;
4272;SDS011;63887;53.656;9.810;2023-04-03T03:55:21;12.77;;;5.72;;
4272;SDS011;63887;53.656;9.810;2023-04-03T03:57:48;8.73;;;6.72;;
4272;SDS011;63887;53.656;9.810;2023-04-03T04:00:14;7.13;;;5.70;;
4272;SDS011;63887;53.656;9.810;2023-04-03T04:02:41;8.60;;;5.97;;
4272;SDS011;63887;53.656;9.810;2023-04-03T04:05:08;11.23;;;6.45;;
4272;SDS011;63887;53.656;9.810;2023-04-03T04:07:36;19.80;;;7.47;;
4272;SDS011;63887;53.656;9.810;2023-04-03T04:10:02;8.95;;;6.25;;
4272;SDS011;63887;53.656;9.810;2023-04-03T04:12:29;18.35;;;6.57;;
4272;SDS011;63887;53.656;9.810;2023-04-03T04:14:56;17.48;;;6.15;;
4272;SDS011;63887;53.656;9.810;2023-04-03T04:17:22;8.05;;;6.25;;
4272;SDS011;63887;53.656;9.810;2023-04-03T04:19:49;12.02;;;7.18;;
4272;SDS011;63887;53.656;9.810;2023-04-03T04:22:15;7.22;;;6.53;;
4272;SDS011;63887;53.656;9.810;2023-04-03T04:24:43;13.60;;;6.38;;
4272;SDS011;63887;53.656;9.810;2023-04-03T04:27:09;11.68;;;7.18;;
4272;SDS011;63887;53.656;9.810;2023-04-03T04:29:36;8.68;;;6.80;;
4272;SDS011;63887;53.656;9.810;2023-04-03T04:32:02;7.45;;;6.70;;
4272;SDS011;63887;53.656;9.810;2023-04-03T04:34:29;11.25;;;6.65;;
4272;SDS011;63887;53.656;9.810;2023-04-03T04:36:56;17.40;;;6.80;;
4272;SDS011;63887;53.656;9.810;2023-04-03T04:39:22;7.65;;;7.25;;
4272;SDS011;63887;53.656;9.810;2023-04-03T04:41:50;8.50;;;7.18;;
4272;SDS011;63887;53.656;9.810;2023-04-03T04:44:17;13.70;;;8.00;;
4272;SDS011;63887;53.656;9.810;2023-04-03T04:46:43;7.78;;;7.10;;
4272;SDS011;63887;53.656;9.810;2023-04-03T04:49:10;7.20;;;6.70;;
4272;SDS011;63887;53.656;9.810;2023-04-03T04:51:36;9.30;;;6.72;;
4272;SDS011;63887;53.656;9.810;2023-04-03T04:54:03;7.70;;;7.10;;
4272;SDS011;63887;53.656;9.810;2023-04-03T04:56:29;10.63;;;7.18;;
4272;SDS011;63887;53.656;9.810;2023-04-03T04:58:57;12.98;;;7.35;;
4272;SDS011;63887;53.656;9.810;2023-04-03T05:01:23;8.35;;;7.50;;
4272;SDS011;63887;53.656;9.810;2023-04-03T05:03:50;10.88;;;7.30;;
4272;SDS011;63887;53.656;9.810;2023-04-03T05:06:16;12.95;;;7.88;;
4272;SDS011;63887;53.656;9.810;2023-04-03T05:08:43;10.35;;;7.85;;
4272;SDS011;63887;53.656;9.810;2023-04-03T05:11:09;8.95;;;8.23;;
4272;SDS011;63887;53.656;9.810;2023-04-03T05:13:36;22.08;;;9.20;;
4272;SDS011;63887;53.656;9.810;2023-04-03T05:16:04;13.73;;;9.43;;
4272;SDS011;63887;53.656;9.810;2023-04-03T05:18:31;21.10;;;9.88;;
4272;SDS011;63887;53.656;9.810;2023-04-03T05:20:57;10.63;;;9.60;;
4272;SDS011;63887;53.656;9.810;2023-04-03T05:23:24;13.77;;;9.90;;
4272;SDS011;63887;53.656;9.810;2023-04-03T05:25:50;14.38;;;9.40;;
4272;SDS011;63887;53.656;9.810;2023-04-03T05:28:17;14.20;;;8.07;;
4272;SDS011;63887;53.656;9.810;2023-04-03T05:30:43;12.48;;;8.80;;
4272;SDS011;63887;53.656;9.810;2023-04-03T05:33:11;16.98;;;8.98;;
4272;SDS011;63887;53.656;9.810;2023-04-03T05:35:39;16.92;;;9.07;;
4272;SDS011;63887;53.656;9.810;2023-04-03T05:38:06;11.38;;;8.60;;
4272;SDS011;63887;53.656;9.810;2023-04-03T05:40:32;16.52;;;8.70;;
4272;SDS011;63887;53.656;9.810;2023-04-03T05:42:59;13.10;;;9.32;;
4272;SDS011;63887;53.656;9.810;2023-04-03T05:45:25;20.20;;;8.30;;
4272;SDS011;63887;53.656;9.810;2023-04-03T05:47:52;16.00;;;9.32;;
4272;SDS011;63887;53.656;9.810;2023-04-03T05:50:20;9.75;;;8.85;;
4272;SDS011;63887;53.656;9.810;2023-04-03T05:52:47;13.55;;;9.45;;
4272;SDS011;63887;53.656;9.810;2023-04-03T05:55:15;9.70;;;8.90;;
4272;SDS011;63887;53.656;9.810;2023-04-03T05:57:41;11.18;;;8.55;;
4272;SDS011;63887;53.656;9.810;2023-04-03T06:00:08;7.95;;;7.55;;
4272;SDS011;63887;53.656;9.810;2023-04-03T06:02:41;15.65;;;8.40;;
4272;SDS011;63887;53.656;9.810;2023-04-03T06:05:08;11.88;;;7.90;;
4272;SDS011;63887;53.656;9.810;2023-04-03T06:07:37;9.55;;;8.13;;
4272;SDS011;63887;53.656;9.810;2023-04-03T06:10:05;9.05;;;8.20;;
4272;SDS011;63887;53.656;9.810;2023-04-03T06:12:33;10.25;;;8.80;;
4272;SDS011;63887;53.656;9.810;2023-04-03T06:15:00;8.98;;;8.40;;
4272;SDS011;63887;53.656;9.810;2023-04-03T06:17:27;9.75;;;8.32;;
4272;SDS011;63887;53.656;9.810;2023-04-03T06:19:54;11.00;;;8.30;;
4272;SDS011;63887;53.656;9.810;2023-04-03T06:22:23;16.55;;;8.38;;
4272;SDS011;63887;53.656;9.810;2023-04-03T06:24:51;10.27;;;8.45;;
4272;SDS011;63887;53.656;9.810;2023-04-03T06:27:18;11.98;;;8.43;;
4272;SDS011;63887;53.656;9.810;2023-04-03T06:29:45;11.30;;;8.48;;
4272;SDS011;63887;53.656;9.810;2023-04-03T06:32:11;10.02;;;9.10;;
4272;SDS011;63887;53.656;9.810;2023-04-03T06:34:37;16.13;;;9.73;;
4272;SDS011;63887;53.656;9.810;2023-04-03T06:37:04;9.27;;;8.53;;
4272;SDS011;63887;53.656;9.810;2023-04-03T06:39:31;11.07;;;10.17;;
4272;SDS011;63887;53.656;9.810;2023-04-03T06:41:58;10.17;;;9.17;;
4272;SDS011;63887;53.656;9.810;2023-04-03T06:44:25;9.13;;;8.50;;
4272;SDS011;63887;53.656;9.810;2023-04-03T06:46:51;10.10;;;9.23;;
4272;SDS011;63887;53.656;9.810;2023-04-03T06:49:19;11.67;;;9.17;;
4272;SDS011;63887;53.656;9.810;2023-04-03T06:51:46;10.70;;;9.20;;
4272;SDS011;63887;53.656;9.810;2023-04-03T06:54:12;10.10;;;9.50;;
4272;SDS011;63887;53.656;9.810;2023-04-03T06:56:39;10.20;;;9.40;;
4272;SDS011;63887;53.656;9.810;2023-04-03T06:59:07;10.77;;;10.07;;
4272;SDS011;63887;53.656;9.810;2023-04-03T07:01:35;10.13;;;9.43;;
4272;SDS011;63887;53.656;9.810;2023-04-03T07:04:02;9.53;;;8.87;;
4272;SDS011;63887;53.656;9.810;2023-04-03T07:06:28;9.60;;;8.83;;
4272;SDS011;63887;53.656;9.810;2023-04-03T07:08:56;10.00;;;9.20;;
4272;SDS011;63887;53.656;9.810;2023-04-03T07:11:22;10.33;;;9.60;;
4272;SDS011;63887;53.656;9.810;2023-04-03T07:13:49;13.17;;;9.30;;
4272;SDS011;63887;53.656;9.810;2023-04-03T07:16:17;16.57;;;9.57;;
4272;SDS011;63887;53.656;9.810;2023-04-03T07:18:44;10.07;;;9.10;;
4272;SDS011;63887;53.656;9.810;2023-04-03T07:21:11;10.83;;;9.83;;
4272;SDS011;63887;53.656;9.810;2023-04-03T07:23:38;12.32;;;9.18;;
4272;SDS011;63887;53.656;9.810;2023-04-03T07:26:04;9.38;;;8.68;;
4272;SDS011;63887;53.656;9.810;2023-04-03T07:28:31;12.40;;;9.00;;
4272;SDS011;63887;53.656;9.810;2023-04-03T07:30:59;9.85;;;8.60;;
4272;SDS011;63887;53.656;9.810;2023-04-03T07:33:28;11.00;;;8.60;;
4272;SDS011;63887;53.656;9.810;2023-04-03T07:35:56;10.07;;;9.07;;
4272;SDS011;63887;53.656;9.810;2023-04-03T07:38:22;10.25;;;9.45;;
4272;SDS011;63887;53.656;9.810;2023-04-03T07:40:49;9.18;;;8.52;;
4272;SDS011;63887;53.656;9.810;2023-04-03T07:43:18;9.80;;;8.25;;
4272;SDS011;63887;53.656;9.810;2023-04-03T07:45:45;8.80;;;8.10;;
4272;SDS011;63887;53.656;9.810;2023-04-03T07:48:14;8.03;;;7.73;;
4272;SDS011;63887;53.656;9.810;2023-04-03T07:50:43;10.73;;;9.77;;
4272;SDS011;63887;53.656;9.810;2023-04-03T07:53:10;9.03;;;8.43;;
4272;SDS011;63887;53.656;9.810;2023-04-03T07:55:36;10.35;;;9.13;;
4272;SDS011;63887;53.656;9.810;2023-04-03T07:58:07;9.70;;;8.95;;
4272;SDS011;63887;53.656;9.810;2023-04-03T08:00:34;12.90;;;7.70;;
4272;SDS011;63887;53.656;9.810;2023-04-03T08:03:01;11.63;;;7.70;;
4272;SDS011;63887;53.656;9.810;2023-04-03T08:05:28;8.60;;;8.10;;
4272;SDS011;63887;53.656;9.810;2023-04-03T08:07:55;7.37;;;6.77;;
4272;SDS011;63887;53.656;9.810;2023-04-03T08:10:22;7.33;;;7.10;;
4272;SDS011;63887;53.656;9.810;2023-04-03T08:12:48;8.90;;;7.70;;
4272;SDS011;63887;53.656;9.810;2023-04-03T08:15:16;7.93;;;7.40;;
4272;SDS011;63887;53.656;9.810;2023-04-03T08:17:42;10.80;;;7.70;;
4272;SDS011;63887;53.656;9.810;2023-04-03T08:20:09;8.00;;;7.33;;
4272;SDS011;63887;53.656;9.810;2023-04-03T08:22:36;7.57;;;7.20;;
4272;SDS011;63887;53.656;9.810;2023-04-03T08:25:04;8.50;;;8.20;;
4272;SDS011;63887;53.656;9.810;2023-04-03T08:27:31;7.80;;;7.60;;
4272;SDS011;63887;53.656;9.810;2023-04-03T08:29:58;7.80;;;7.40;;
4272;SDS011;63887;53.656;9.810;2023-04-03T08:32:24;7.43;;;6.93;;
4272;SDS011;63887;53.656;9.810;2023-04-03T08:34:52;10.23;;;6.90;;
4272;SDS011;63887;53.656;9.810;2023-04-03T08:37:18;8.20;;;7.13;;
4272;SDS011;63887;53.656;9.810;2023-04-03T08:39:45;7.63;;;7.10;;
4272;SDS011;63887;53.656;9.810;2023-04-03T08:42:15;8.45;;;7.95;;
4272;SDS011;63887;53.656;9.810;2023-04-03T08:44:51;7.47;;;7.27;;
4272;SDS011;63887;53.656;9.810;2023-04-03T08:47:24;7.03;;;6.83;;
4272;SDS011;63887;53.656;9.810;2023-04-03T08:49:59;8.43;;;7.13;;
4272;SDS011;63887;53.656;9.810;2023-04-03T08:52:30;8.00;;;7.40;;
4272;SDS011;63887;53.656;9.810;2023-04-03T08:55:02;7.37;;;6.90;;
4272;SDS011;63887;53.656;9.810;2023-04-03T08:57:33;7.15;;;7.05;;
4272;SDS011;63887;53.656;9.810;2023-04-03T09:00:06;8.03;;;7.83;;
4272;SDS011;63887;53.656;9.810;2023-04-03T09:02:42;9.17;;;7.80;;
4272;SDS011;63887;53.656;9.810;2023-04-03T09:05:11;14.77;;;7.03;;
4272;SDS011;63887;53.656;9.810;2023-04-03T09:07:42;8.87;;;8.23;;
4272;SDS011;63887;53.656;9.810;2023-04-03T09:10:12;8.00;;;7.20;;
4272;SDS011;63887;53.656;9.810;2023-04-03T09:12:41;7.07;;;6.50;;
4272;SDS011;63887;53.656;9.810;2023-04-03T09:15:15;11.33;;;7.63;;
4272;SDS011;63887;53.656;9.810;2023-04-03T09:17:46;6.57;;;6.20;;
4272;SDS011;63887;53.656;9.810;2023-04-03T09:20:24;7.37;;;6.93;;
4272;SDS011;63887;53.656;9.810;2023-04-03T09:22:57;13.50;;;6.87;;
4272;SDS011;63887;53.656;9.810;2023-04-03T09:25:24;7.60;;;6.70;;
4272;SDS011;63887;53.656;9.810;2023-04-03T09:27:55;7.40;;;6.97;;
4272;SDS011;63887;53.656;9.810;2023-04-03T09:30:23;7.10;;;6.60;;
4272;SDS011;63887;53.656;9.810;2023-04-03T09:32:51;7.33;;;7.03;;
4272;SDS011;63887;53.656;9.810;2023-04-03T09:35:19;9.10;;;7.20;;
4272;SDS011;63887;53.656;9.810;2023-04-03T09:37:49;8.93;;;6.97;;
4272;SDS011;63887;53.656;9.810;2023-04-03T09:40:30;6.77;;;6.43;;
4272;SDS011;63887;53.656;9.810;2023-04-03T09:43:02;6.73;;;6.40;;
4272;SDS011;63887;53.656;9.810;2023-04-03T09:45:46;6.93;;;6.60;;
4272;SDS011;63887;53.656;9.810;2023-04-03T09:48:15;7.07;;;6.50;;
4272;SDS011;63887;53.656;9.810;2023-04-03T09:50:56;7.90;;;7.23;;
4272;SDS011;63887;53.656;9.810;2023-04-03T09:53:26;7.93;;;7.53;;
4272;SDS011;63887;53.656;9.810;2023-04-03T09:55:55;7.73;;;7.43;;
4272;SDS011;63887;53.656;9.810;2023-04-03T09:58:25;7.10;;;6.80;;
4272;SDS011;63887;53.656;9.810;2023-04-03T10:00:54;8.37;;;7.90;;
4272;SDS011;63887;53.656;9.810;2023-04-03T10:03:23;7.40;;;6.97;;
4272;SDS011;63887;53.656;9.810;2023-04-03T10:05:51;7.63;;;6.90;;
4272;SDS011;63887;53.656;9.810;2023-04-03T10:08:20;7.37;;;6.97;;
4272;SDS011;63887;53.656;9.810;2023-04-03T10:11:04;7.27;;;6.77;;
4272;SDS011;63887;53.656;9.810;2023-04-03T10:13:36;7.27;;;7.10;;
4272;SDS011;63887;53.656;9.810;2023-04-03T10:16:16;8.27;;;7.47;;
4272;SDS011;63887;53.656;9.810;2023-04-03T10:18:45;6.87;;;6.67;;
4272;SDS011;63887;53.656;9.810;2023-04-03T10:21:15;7.63;;;7.03;;
4272;SDS011;63887;53.656;9.810;2023-04-03T10:23:54;6.90;;;6.70;;
4272;SDS011;63887;53.656;9.810;2023-04-03T10:26:29;7.40;;;7.03;;
4272;SDS011;63887;53.656;9.810;2023-04-03T10:29:06;7.37;;;6.77;;
4272;SDS011;63887;53.656;9.810;2023-04-03T10:31:43;8.13;;;7.57;;
4272;SDS011;63887;53.656;9.810;2023-04-03T10:34:18;7.37;;;7.17;;
4272;SDS011;63887;53.656;9.810;2023-04-03T10:36:51;8.53;;;7.87;;
4272;SDS011;63887;53.656;9.810;2023-04-03T10:39:27;7.87;;;7.47;;
4272;SDS011;63887;53.656;9.810;2023-04-03T10:42:02;7.50;;;6.90;;
4272;SDS011;63887;53.656;9.810;2023-04-03T10:44:37;7.40;;;7.20;;
4272;SDS011;63887;53.656;9.810;2023-04-03T10:47:13;8.13;;;7.47;;
4272;SDS011;63887;53.656;9.810;2023-04-03T10:49:49;7.47;;;6.97;;
4272;SDS011;63887;53.656;9.810;2023-04-03T10:52:23;6.90;;;6.70;;
4272;SDS011;63887;53.656;9.810;2023-04-03T10:54:56;7.37;;;7.00;;
4272;SDS011;63887;53.656;9.810;2023-04-03T10:57:29;7.03;;;6.33;;
4272;SDS011;63887;53.656;9.810;2023-04-03T10:59:58;7.47;;;6.97;;
4272;SDS011;63887;53.656;9.810;2023-04-03T11:02:29;6.60;;;6.40;;
4272;SDS011;63887;53.656;9.810;2023-04-03T11:04:59;6.43;;;6.33;;
4272;SDS011;63887;53.656;9.810;2023-04-03T11:07:32;8.73;;;7.97;;
4272;SDS011;63887;53.656;9.810;2023-04-03T11:10:05;8.93;;;6.70;;
4272;SDS011;63887;53.656;9.810;2023-04-03T11:12:41;7.90;;;7.40;;
4272;SDS011;63887;53.656;9.810;2023-04-03T11:15:13;7.63;;;7.13;;
4272;SDS011;63887;53.656;9.810;2023-04-03T11:17:43;7.00;;;6.70;;
4272;SDS011;63887;53.656;9.810;2023-04-03T11:20:16;6.47;;;6.07;;
4272;SDS011;63887;53.656;9.810;2023-04-03T11:22:47;6.63;;;6.43;;
4272;SDS011;63887;53.656;9.810;2023-04-03T11:25:18;7.03;;;6.83;;
4272;SDS011;63887;53.656;9.810;2023-04-03T11:27:48;7.87;;;7.20;;
4272;SDS011;63887;53.656;9.810;2023-04-03T11:30:22;8.67;;;6.73;;
4272;SDS011;63887;53.656;9.810;2023-04-03T11:32:58;9.10;;;8.13;;
4272;SDS011;63887;53.656;9.810;2023-04-03T11:35:31;7.00;;;6.50;;
4272;SDS011;63887;53.656;9.810;2023-04-03T11:37:59;6.80;;;6.60;;
4272;SDS011;63887;53.656;9.810;2023-04-03T11:40:30;7.27;;;7.00;;
4272;SDS011;63887;53.656;9.810;2023-04-03T11:43:02;7.40;;;7.10;;
4272;SDS011;63887;53.656;9.810;2023-04-03T11:45:37;7.07;;;6.87;;
4272;SDS011;63887;53.656;9.810;2023-04-03T11:54:35;7.07;;;6.73;;
4272;SDS011;63887;53.656;9.810;2023-04-03T12:12:43;7.43;;;6.90;;
4272;SDS011;63887;53.656;9.810;2023-04-03T12:21:10;9.20;;;6.37;;
4272;SDS011;63887;53.656;9.810;2023-04-03T12:23:55;7.03;;;6.40;;
4272;SDS011;63887;53.656;9.810;2023-04-03T12:27:01;9.37;;;7.20;;
4272;SDS011;63887;53.656;9.810;2023-04-03T12:29:33;6.90;;;6.77;;
4272;SDS011;63887;53.656;9.810;2023-04-03T12:32:07;7.70;;;7.10;;
4272;SDS011;63887;53.656;9.810;2023-04-03T12:34:42;7.70;;;7.30;;
4272;SDS011;63887;53.656;9.810;2023-04-03T12:37:21;8.60;;;7.93;;
4272;SDS011;63887;53.656;9.810;2023-04-03T12:40:08;8.30;;;6.90;;
4272;SDS011;63887;53.656;9.810;2023-04-03T12:45:40;6.27;;;6.20;;
4272;SDS011;63887;53.656;9.810;2023-04-03T12:48:12;7.53;;;7.30;;
4272;SDS011;63887;53.656;9.810;2023-04-03T12:50:41;7.87;;;7.43;;
4272;SDS011;63887;53.656;9.810;2023-04-03T12:53:11;7.50;;;7.10;;
4272;SDS011;63887;53.656;9.810;2023-04-03T12:55:40;7.27;;;6.90;;
4272;SDS011;63887;53.656;9.810;2023-04-03T12:58:14;7.70;;;7.30;;
4272;SDS011;63887;53.656;9.810;2023-04-03T13:00:58;7.67;;;7.23;;
4272;SDS011;63887;53.656;9.810;2023-04-03T13:03:26;7.83;;;7.27;;
4272;SDS011;63887;53.656;9.810;2023-04-03T13:05:54;12.83;;;7.43;;
4272;SDS011;63887;53.656;9.810;2023-04-03T13:08:23;7.53;;;7.23;;
4272;SDS011;63887;53.656;9.810;2023-04-03T13:10:53;7.60;;;7.40;;
4272;SDS011;63887;53.656;9.810;2023-04-03T13:13:24;7.87;;;7.47;;
4272;SDS011;63887;53.656;9.810;2023-04-03T13:15:51;8.20;;;7.40;;
4272;SDS011;63887;53.656;9.810;2023-04-03T13:18:23;6.77;;;6.40;;
4272;SDS011;63887;53.656;9.810;2023-04-03T13:20:51;6.53;;;6.33;;
4272;SDS011;63887;53.656;9.810;2023-04-03T13:23:19;6.90;;;6.60;;
4272;SDS011;63887;53.656;9.810;2023-04-03T13:25:47;5.87;;;5.60;;
4272;SDS011;63887;53.656;9.810;2023-04-03T13:28:17;6.73;;;6.50;;
4272;SDS011;63887;53.656;9.810;2023-04-03T13:30:59;6.80;;;6.13;;
4272;SDS011;63887;53.656;9.810;2023-04-03T13:33:29;6.97;;;6.70;;
4272;SDS011;63887;53.656;9.810;2023-04-03T13:36:00;7.40;;;6.90;;
4272;SDS011;63887;53.656;9.810;2023-04-03T13:38:31;6.83;;;6.63;;
4272;SDS011;63887;53.656;9.810;2023-04-03T13:41:00;6.73;;;6.40;;
4272;SDS011;63887;53.656;9.810;2023-04-03T13:43:30;6.90;;;6.63;;
4272;SDS011;63887;53.656;9.810;2023-04-03T13:46:01;6.80;;;6.57;;
4272;SDS011;63887;53.656;9.810;2023-04-03T13:48:34;6.40;;;6.20;;
4272;SDS011;63887;53.656;9.810;2023-04-03T13:51:04;6.37;;;5.90;;
4272;SDS011;63887;53.656;9.810;2023-04-03T13:53:34;6.67;;;6.03;;
4272;SDS011;63887;53.656;9.810;2023-04-03T13:56:09;6.40;;;6.00;;
4272;SDS011;63887;53.656;9.810;2023-04-03T13:58:52;7.43;;;6.77;;
4272;SDS011;63887;53.656;9.810;2023-04-03T14:01:48;8.33;;;5.67;;
4272;SDS011;63887;53.656;9.810;2023-04-03T14:04:18;6.63;;;6.20;;
4272;SDS011;63887;53.656;9.810;2023-04-03T14:06:46;11.77;;;6.53;;
4272;SDS011;63887;53.656;9.810;2023-04-03T14:09:14;6.27;;;5.93;;
4272;SDS011;63887;53.656;9.810;2023-04-03T14:11:42;7.23;;;6.77;;
4272;SDS011;63887;53.656;9.810;2023-04-03T14:14:11;5.80;;;5.50;;
4272;SDS011;63887;53.656;9.810;2023-04-03T14:16:41;7.97;;;6.80;;
4272;SDS011;63887;53.656;9.810;2023-04-03T14:19:16;13.43;;;6.47;;
4272;SDS011;63887;53.656;9.810;2023-04-03T14:21:46;9.03;;;6.70;;
4272;SDS011;63887;53.656;9.810;2023-04-03T14:24:12;7.57;;;7.20;;
4272;SDS011;63887;53.656;9.810;2023-04-03T14:26:39;6.93;;;5.90;;
4272;SDS011;63887;53.656;9.810;2023-04-03T14:29:06;6.27;;;6.07;;
4272;SDS011;63887;53.656;9.810;2023-04-03T14:31:32;7.63;;;6.87;;
4272;SDS011;63887;53.656;9.810;2023-04-03T14:33:58;7.10;;;6.57;;
4272;SDS011;63887;53.656;9.810;2023-04-03T14:36:27;7.37;;;6.90;;
4272;SDS011;63887;53.656;9.810;2023-04-03T14:38:55;8.53;;;6.90;;
4272;SDS011;63887;53.656;9.810;2023-04-03T14:41:23;9.57;;;7.13;;
4272;SDS011;63887;53.656;9.810;2023-04-03T14:43:51;6.40;;;5.83;;
4272;SDS011;63887;53.656;9.810;2023-04-03T14:46:19;6.80;;;6.47;;
4272;SDS011;63887;53.656;9.810;2023-04-03T14:48:50;6.40;;;5.83;;
4272;SDS011;63887;53.656;9.810;2023-04-03T14:51:17;7.23;;;6.70;;
4272;SDS011;63887;53.656;9.810;2023-04-03T14:53:45;8.03;;;7.70;;
4272;SDS011;63887;53.656;9.810;2023-04-03T14:56:12;7.13;;;6.93;;
4272;SDS011;63887;53.656;9.810;2023-04-03T14:58:40;7.30;;;7.00;;
4272;SDS011;63887;53.656;9.810;2023-04-03T15:01:08;7.90;;;7.27;;
4272;SDS011;63887;53.656;9.810;2023-04-03T15:03:36;7.50;;;7.00;;
4272;SDS011;63887;53.656;9.810;2023-04-03T15:06:03;8.73;;;8.10;;
4272;SDS011;63887;53.656;9.810;2023-04-03T15:08:30;11.97;;;8.13;;
4272;SDS011;63887;53.656;9.810;2023-04-03T15:10:57;7.67;;;7.17;;
4272;SDS011;63887;53.656;9.810;2023-04-03T15:13:24;8.13;;;7.50;;
4272;SDS011;63887;53.656;9.810;2023-04-03T15:15:51;7.90;;;7.10;;
4272;SDS011;63887;53.656;9.810;2023-04-03T15:18:18;7.00;;;6.70;;
4272;SDS011;63887;53.656;9.810;2023-04-03T15:20:47;9.23;;;8.37;;
4272;SDS011;63887;53.656;9.810;2023-04-03T15:23:14;9.60;;;8.80;;
4272;SDS011;63887;53.656;9.810;2023-04-03T15:25:42;9.90;;;9.20;;
4272;SDS011;63887;53.656;9.810;2023-04-03T15:28:10;8.73;;;7.37;;
4272;SDS011;63887;53.656;9.810;2023-04-03T15:30:43;7.80;;;6.83;;
4272;SDS011;63887;53.656;9.810;2023-04-03T15:33:10;7.63;;;7.23;;
4272;SDS011;63887;53.656;9.810;2023-04-03T15:35:36;7.47;;;7.17;;
4272;SDS011;63887;53.656;9.810;2023-04-03T15:38:03;8.40;;;7.90;;
4272;SDS011;63887;53.656;9.810;2023-04-03T15:40:29;6.67;;;6.30;;
4272;SDS011;63887;53.656;9.810;2023-04-03T15:42:55;7.37;;;6.97;;
4272;SDS011;63887;53.656;9.810;2023-04-03T15:45:23;7.03;;;6.10;;